Agency, Missouri
Current Conditions -  °F | °C
As of 3:41 AM on Tuesday 21 Oct 2014 (Local Time) from KSTJ Reporting Station
Moderate Fog Moderate Fog  
Wind Chill: 38°   Ceiling: 200
Heat Index: 38°   Visibility: 0.5mi
Dew Point: 36°   Wind: 0mph
Humidity: 93%   Direction: NA
Pressure: 30.09"   Gusts: NA
Location:  39.64°N, 94.74°W
Report Text: KSTJ 210841Z AUTO 00000KT 1/2SM R35/2600VP6000FT FG VV002 03/02 A3009 RMK AO2 T00330022
Loading
Personal Weather Stations






























Interactive Weather Map
Tropical Storm Tracking
New forecast layout! Learn more

10-Day Weather Forecast

Advertisements
Track Severe Weather on mobile